createdAt,value
2023-06-11T00:00:00.916Z,7.50
2023-06-11T00:02:34.252Z,7.63
2023-06-11T00:05:05.242Z,8.18
2023-06-11T00:07:31.936Z,8.13
2023-06-11T00:09:59.220Z,8.00
2023-06-11T00:12:28.736Z,8.15
2023-06-11T00:14:55.375Z,7.40
2023-06-11T00:17:22.108Z,8.18
2023-06-11T00:19:49.488Z,8.00
2023-06-11T00:22:16.548Z,7.57
2023-06-11T00:24:43.149Z,8.60
2023-06-11T00:27:09.802Z,8.90
2023-06-11T00:29:36.586Z,8.20
2023-06-11T00:32:03.470Z,8.23
2023-06-11T00:34:30.241Z,7.88
2023-06-11T00:36:56.965Z,7.90
2023-06-11T00:39:23.939Z,8.00
2023-06-11T00:41:51.007Z,8.07
2023-06-11T00:44:22.773Z,8.20
2023-06-11T00:46:52.328Z,8.18
2023-06-11T00:49:20.018Z,7.72
2023-06-11T00:51:46.895Z,8.27
2023-06-11T00:54:14.515Z,9.00
2023-06-11T00:56:42.393Z,8.70
2023-06-11T00:59:09.723Z,8.43
2023-06-11T01:01:43.072Z,8.07
2023-06-11T01:04:14.627Z,8.05
2023-06-11T01:06:47.498Z,7.28
2023-06-11T01:09:14.320Z,8.02
2023-06-11T01:11:42.445Z,8.25
2023-06-11T01:14:13.987Z,8.18
2023-06-11T01:16:53.929Z,8.38
2023-06-11T01:19:23.482Z,8.15
2023-06-11T01:22:00.378Z,7.65
2023-06-11T01:24:58.261Z,7.88
2023-06-11T01:27:52.476Z,8.55
2023-06-11T01:30:22.004Z,7.40
2023-06-11T01:32:57.043Z,7.78
2023-06-11T01:35:29.204Z,8.05
2023-06-11T01:37:56.836Z,8.25
2023-06-11T01:40:28.975Z,8.15
2023-06-11T01:42:58.631Z,8.32
2023-06-11T01:45:27.302Z,8.48
2023-06-11T01:47:54.042Z,8.25
2023-06-11T01:50:21.972Z,8.40
2023-06-11T01:52:48.908Z,8.52
2023-06-11T01:55:15.942Z,8.27
2023-06-11T01:57:43.205Z,7.53
2023-06-11T02:00:11.097Z,8.95
2023-06-11T02:02:48.571Z,8.40
2023-06-11T02:05:17.545Z,8.32
2023-06-11T02:07:44.248Z,8.25
2023-06-11T02:10:11.330Z,8.65
2023-06-11T02:12:38.163Z,8.57
2023-06-11T02:15:06.774Z,8.55
2023-06-11T02:17:33.607Z,8.27
2023-06-11T02:20:00.293Z,8.07
2023-06-11T02:22:27.126Z,8.25
2023-06-11T02:24:53.874Z,8.20
2023-06-11T02:27:20.928Z,8.43
2023-06-11T02:29:48.970Z,7.57
2023-06-11T02:32:16.316Z,8.15
2023-06-11T02:34:43.278Z,7.90
2023-06-11T02:37:10.324Z,7.75
2023-06-11T02:39:37.023Z,7.90
2023-06-11T02:42:03.894Z,8.02
2023-06-11T02:44:30.682Z,8.25
2023-06-11T02:46:57.378Z,8.25
2023-06-11T02:49:24.016Z,8.15
2023-06-11T02:51:50.668Z,8.15
2023-06-11T02:54:17.364Z,8.18
2023-06-11T02:56:44.073Z,8.98
2023-06-11T02:59:10.739Z,9.15
2023-06-11T03:01:39.678Z,8.48
2023-06-11T03:04:07.783Z,8.55
2023-06-11T03:06:35.749Z,9.43
2023-06-11T03:09:02.752Z,8.73
2023-06-11T03:11:29.521Z,8.90
2023-06-11T03:13:56.256Z,8.32
2023-06-11T03:16:23.068Z,8.82
2023-06-11T03:18:49.785Z,8.90
2023-06-11T03:21:16.537Z,8.63
2023-06-11T03:23:43.283Z,8.50
2023-06-11T03:26:11.078Z,9.13
2023-06-11T03:28:43.120Z,8.75
2023-06-11T03:31:10.292Z,8.23
2023-06-11T03:33:37.303Z,9.15
2023-06-11T03:36:05.434Z,8.65
2023-06-11T03:38:32.136Z,8.68
2023-06-11T03:40:58.935Z,8.80
2023-06-11T03:43:29.939Z,8.77
2023-06-11T03:45:56.627Z,9.32
2023-06-11T03:48:23.436Z,9.30
2023-06-11T03:50:50.323Z,9.02
2023-06-11T03:53:17.217Z,8.85
2023-06-11T03:55:44.672Z,9.15
2023-06-11T03:58:12.277Z,9.23
2023-06-11T04:00:39.759Z,9.18
2023-06-11T04:03:06.777Z,8.20
2023-06-11T04:05:37.651Z,8.70
2023-06-11T04:08:05.734Z,9.10
2023-06-11T04:10:33.101Z,8.38
2023-06-11T04:12:59.849Z,8.48
2023-06-11T04:15:26.807Z,9.40
2023-06-11T04:17:54.731Z,8.32
2023-06-11T04:20:21.431Z,8.07
2023-06-11T04:22:48.698Z,8.68
2023-06-11T04:25:17.983Z,8.80
2023-06-11T04:27:47.507Z,8.55
2023-06-11T04:30:15.687Z,8.27
2023-06-11T04:32:44.582Z,8.60
2023-06-11T04:35:14.732Z,8.10
2023-06-11T04:37:43.572Z,9.10
2023-06-11T04:40:15.372Z,8.75
2023-06-11T04:42:42.559Z,8.63
2023-06-11T04:45:12.095Z,8.70
2023-06-11T04:47:41.821Z,8.52
2023-06-11T04:50:09.556Z,9.07
2023-06-11T04:52:39.026Z,8.10
2023-06-11T04:55:11.045Z,9.38
2023-06-11T04:57:39.323Z,8.25
2023-06-11T05:00:10.082Z,8.15
2023-06-11T05:02:44.833Z,9.20
2023-06-11T05:05:14.192Z,8.68
2023-06-11T05:07:42.812Z,8.10
2023-06-11T05:10:09.672Z,8.98
2023-06-11T05:12:36.823Z,8.13
2023-06-11T05:15:03.700Z,8.57
2023-06-11T05:17:30.453Z,8.50
2023-06-11T05:19:57.171Z,8.75
2023-06-11T05:22:24.298Z,8.65
2023-06-11T05:24:51.155Z,8.10
2023-06-11T05:27:18.550Z,8.57
2023-06-11T05:29:46.618Z,7.90
2023-06-11T05:32:16.101Z,8.43
2023-06-11T05:34:44.366Z,8.75
2023-06-11T05:37:13.560Z,7.88
2023-06-11T05:39:40.557Z,7.93
2023-06-11T05:42:07.719Z,7.78
2023-06-11T05:44:35.044Z,8.35
2023-06-11T05:47:02.648Z,8.43
2023-06-11T05:49:29.935Z,7.60
2023-06-11T05:51:57.359Z,7.78
2023-06-11T05:54:24.335Z,8.18
2023-06-11T05:56:51.592Z,7.55
2023-06-11T05:59:19.588Z,7.65
2023-06-11T06:01:47.310Z,7.55
2023-06-11T06:04:17.536Z,7.85
2023-06-11T06:06:44.861Z,8.20
2023-06-11T06:09:13.496Z,8.27
2023-06-11T06:11:40.917Z,7.88
2023-06-11T06:14:07.749Z,8.32
2023-06-11T06:16:35.901Z,7.68
2023-06-11T06:19:04.733Z,7.57
2023-06-11T06:21:31.407Z,8.35
2023-06-11T06:23:58.150Z,8.63
2023-06-11T06:26:25.970Z,7.43
2023-06-11T06:28:54.392Z,8.40
2023-06-11T06:31:24.137Z,7.57
2023-06-11T06:33:52.942Z,8.10
2023-06-11T06:36:21.610Z,8.55
2023-06-11T06:38:48.809Z,7.43
2023-06-11T06:41:15.972Z,7.53
2023-06-11T06:43:42.745Z,7.80
2023-06-11T06:46:14.120Z,7.97
2023-06-11T06:48:41.311Z,7.47
2023-06-11T06:51:08.463Z,7.13
2023-06-11T06:53:37.033Z,8.20
2023-06-11T06:56:06.799Z,7.00
2023-06-11T06:58:34.688Z,7.55
2023-06-11T07:01:01.856Z,7.70
2023-06-11T07:03:28.615Z,7.22
2023-06-11T07:05:56.085Z,7.15
2023-06-11T07:08:22.790Z,7.97
2023-06-11T07:10:51.437Z,6.95
2023-06-11T07:13:23.810Z,7.43
2023-06-11T07:15:51.886Z,7.05
2023-06-11T07:18:19.010Z,6.13
2023-06-11T07:20:45.790Z,7.35
2023-06-11T07:23:12.478Z,6.72
2023-06-11T07:25:40.129Z,6.95
2023-06-11T07:28:06.974Z,6.97
2023-06-11T07:30:36.007Z,7.38
2023-06-11T07:33:02.744Z,7.28
2023-06-11T07:35:29.449Z,7.10
2023-06-11T07:37:56.841Z,6.70
2023-06-11T07:40:24.446Z,6.85
2023-06-11T07:42:51.217Z,6.72
2023-06-11T07:45:19.766Z,7.57
2023-06-11T07:47:48.746Z,6.88
2023-06-11T07:50:15.612Z,6.32
2023-06-11T07:52:42.335Z,7.60
2023-06-11T07:55:17.441Z,6.70
2023-06-11T07:57:44.132Z,7.10
2023-06-11T08:00:14.054Z,6.55
2023-06-11T08:02:41.654Z,6.70
2023-06-11T08:05:11.243Z,5.90
2023-06-11T08:07:38.146Z,6.93
2023-06-11T08:10:05.683Z,7.03
2023-06-11T08:12:32.346Z,7.03
2023-06-11T08:14:59.000Z,6.70
2023-06-11T08:17:25.928Z,6.85
2023-06-11T08:19:52.620Z,6.43
2023-06-11T08:22:19.203Z,6.90
2023-06-11T08:24:45.973Z,6.65
2023-06-11T08:27:13.385Z,6.30
2023-06-11T08:29:40.142Z,6.47
2023-06-11T08:32:07.281Z,6.40
2023-06-11T08:34:34.068Z,6.38
2023-06-11T08:37:01.473Z,6.43
2023-06-11T08:39:28.276Z,6.47
2023-06-11T08:41:54.908Z,6.07
2023-06-11T08:44:24.728Z,6.63
2023-06-11T08:46:53.264Z,6.13
2023-06-11T08:49:23.970Z,6.97
2023-06-11T08:51:51.034Z,6.47
2023-06-11T08:54:18.954Z,6.13
2023-06-11T08:56:46.036Z,6.45
2023-06-11T08:59:12.993Z,6.30
2023-06-11T09:01:41.265Z,6.13
2023-06-11T09:04:08.242Z,6.32
2023-06-11T09:06:35.535Z,6.70
2023-06-11T09:09:06.368Z,6.32
2023-06-11T09:11:37.274Z,6.55
2023-06-11T09:14:05.089Z,6.80
2023-06-11T09:16:41.235Z,6.43
2023-06-11T09:19:11.498Z,7.13
2023-06-11T09:21:38.364Z,6.45
2023-06-11T09:24:11.495Z,6.35
2023-06-11T09:26:38.284Z,6.28
2023-06-11T09:29:08.077Z,6.90
2023-06-11T09:31:34.784Z,6.40
2023-06-11T09:34:03.376Z,6.28
2023-06-11T09:36:32.165Z,6.85
2023-06-11T09:38:58.853Z,6.63
2023-06-11T09:41:25.569Z,7.18
2023-06-11T09:43:53.523Z,6.90
2023-06-11T09:46:20.474Z,6.57
2023-06-11T09:48:47.548Z,6.18
2023-06-11T09:51:14.442Z,7.03
2023-06-11T09:53:41.608Z,6.03
2023-06-11T09:56:11.614Z,7.18
2023-06-11T09:58:40.674Z,6.47
2023-06-11T10:01:08.374Z,6.55
2023-06-11T10:03:35.149Z,6.15
2023-06-11T10:06:05.908Z,6.47
2023-06-11T10:08:34.281Z,6.40
2023-06-11T10:11:03.285Z,6.55
2023-06-11T10:13:35.343Z,6.80
2023-06-11T10:16:08.409Z,6.30
2023-06-11T10:18:35.164Z,5.93
2023-06-11T10:21:03.759Z,6.32
2023-06-11T10:23:39.904Z,6.28
2023-06-11T10:26:06.938Z,6.25
2023-06-11T10:28:42.114Z,6.45
2023-06-11T10:31:08.812Z,6.30
2023-06-11T10:33:46.039Z,6.88
2023-06-11T10:36:35.149Z,6.57
2023-06-11T10:39:06.410Z,6.85
2023-06-11T10:41:37.535Z,6.07
2023-06-11T10:44:04.458Z,6.63
2023-06-11T10:46:31.175Z,6.53
2023-06-11T10:48:57.855Z,6.45
2023-06-11T10:51:24.678Z,6.30
2023-06-11T10:53:56.268Z,6.38
2023-06-11T10:56:23.318Z,5.90
2023-06-11T10:58:51.368Z,5.72
2023-06-11T11:01:22.127Z,5.47
2023-06-11T11:03:51.194Z,5.47
2023-06-11T11:06:29.313Z,5.45
2023-06-11T11:08:56.894Z,5.45
2023-06-11T11:11:24.703Z,5.65
2023-06-11T11:13:51.647Z,5.53
2023-06-11T11:16:19.937Z,5.72
2023-06-11T11:18:50.287Z,5.47
2023-06-11T11:21:17.078Z,5.80
2023-06-11T11:23:47.399Z,5.00
2023-06-11T11:26:14.094Z,5.57
2023-06-11T11:28:40.839Z,5.25
2023-06-11T11:31:07.610Z,5.07
2023-06-11T11:33:37.343Z,5.22
2023-06-11T11:36:07.450Z,4.90
2023-06-11T11:38:36.751Z,5.22
2023-06-11T11:41:03.617Z,4.82
2023-06-11T11:43:56.502Z,5.10
2023-06-11T11:46:27.493Z,5.10
2023-06-11T11:48:56.609Z,4.85
2023-06-11T11:51:24.028Z,5.38
2023-06-11T11:53:52.775Z,5.03
2023-06-11T11:56:19.424Z,4.35
2023-06-11T11:58:47.053Z,5.50
2023-06-11T12:01:22.826Z,4.75
2023-06-11T12:04:02.981Z,4.88
2023-06-11T12:06:31.537Z,4.85
2023-06-11T12:08:58.652Z,5.10
2023-06-11T12:11:25.444Z,4.60
2023-06-11T12:13:52.053Z,5.15
2023-06-11T12:16:21.798Z,4.78
2023-06-11T12:18:49.577Z,5.25
2023-06-11T12:21:16.291Z,5.10
2023-06-11T12:23:42.938Z,5.28
2023-06-11T12:26:09.564Z,4.45
2023-06-11T12:28:36.213Z,5.25
2023-06-11T12:31:02.865Z,4.80
2023-06-11T12:33:29.758Z,5.22
2023-06-11T12:35:56.494Z,4.97
2023-06-11T12:38:23.548Z,4.82
2023-06-11T12:40:50.613Z,5.05
2023-06-11T12:43:17.271Z,5.13
2023-06-11T12:45:43.966Z,5.18
2023-06-11T12:48:10.722Z,5.13
2023-06-11T12:50:37.489Z,5.10
2023-06-11T12:53:05.394Z,4.80
2023-06-11T12:55:32.109Z,5.18
2023-06-11T12:57:58.908Z,5.03
2023-06-11T13:00:26.603Z,5.13
2023-06-11T13:02:53.341Z,4.75
2023-06-11T13:05:22.491Z,5.82
2023-06-11T13:07:49.838Z,5.13
2023-06-11T13:10:16.813Z,5.32
2023-06-11T13:12:43.629Z,4.88
2023-06-11T13:15:10.932Z,4.95
2023-06-11T13:17:37.574Z,5.22
2023-06-11T13:20:04.497Z,5.20
2023-06-11T13:22:31.166Z,5.18
2023-06-11T13:24:58.653Z,5.18
2023-06-11T13:27:25.257Z,4.80
2023-06-11T13:29:51.942Z,4.90
2023-06-11T13:32:19.834Z,5.13
2023-06-11T13:34:46.696Z,4.68
2023-06-11T13:37:16.799Z,5.28
2023-06-11T13:39:46.796Z,5.30
2023-06-11T13:42:13.455Z,5.78
2023-06-11T13:44:40.214Z,5.07
2023-06-11T13:47:07.391Z,5.22
2023-06-11T13:49:34.224Z,5.75
2023-06-11T13:52:01.885Z,5.47
2023-06-11T13:54:29.529Z,5.65
2023-06-11T13:56:56.551Z,4.78
2023-06-11T13:59:23.313Z,5.13
2023-06-11T14:01:50.135Z,5.20
2023-06-11T14:04:17.317Z,5.38
2023-06-11T14:06:44.402Z,5.07
2023-06-11T14:09:11.472Z,4.70
2023-06-11T14:11:38.134Z,4.68
2023-06-11T14:14:04.817Z,5.28
2023-06-11T14:16:31.694Z,5.13
2023-06-11T14:18:58.440Z,5.05
2023-06-11T14:21:25.960Z,5.03
2023-06-11T14:23:52.650Z,5.07
2023-06-11T14:26:19.348Z,4.93
2023-06-11T14:28:46.053Z,5.35
2023-06-11T14:31:12.778Z,5.55
2023-06-11T14:33:39.912Z,4.80
2023-06-11T14:36:07.336Z,4.57
2023-06-11T14:38:34.240Z,4.47
2023-06-11T14:41:01.064Z,5.10
2023-06-11T14:43:28.217Z,4.65
2023-06-11T14:45:55.015Z,4.70
2023-06-11T14:48:21.700Z,4.20
2023-06-11T14:50:48.357Z,4.30
2023-06-11T14:53:15.090Z,4.22
2023-06-11T14:55:41.793Z,3.70
2023-06-11T14:58:08.418Z,4.35
2023-06-11T15:00:35.122Z,3.88
2023-06-11T15:03:01.796Z,3.60
2023-06-11T15:05:28.475Z,4.03
2023-06-11T15:07:55.159Z,3.60
2023-06-11T15:10:22.115Z,3.42
2023-06-11T15:12:48.741Z,3.20
2023-06-11T15:15:15.555Z,3.28
2023-06-11T15:17:42.307Z,3.70
2023-06-11T15:20:09.505Z,3.35
2023-06-11T15:22:38.565Z,3.30
2023-06-11T15:25:05.582Z,3.65
2023-06-11T15:27:32.241Z,3.78
2023-06-11T15:29:58.947Z,3.75
2023-06-11T15:32:25.695Z,3.28
2023-06-11T15:34:52.514Z,3.53
2023-06-11T15:37:19.404Z,3.70
2023-06-11T15:39:52.645Z,3.15
2023-06-11T15:42:19.988Z,3.63
2023-06-11T15:44:46.927Z,3.50
2023-06-11T15:47:13.657Z,3.40
2023-06-11T15:49:40.471Z,3.15
2023-06-11T15:52:07.580Z,3.63
2023-06-11T15:54:34.278Z,2.97
2023-06-11T15:57:01.671Z,3.60
2023-06-11T15:59:28.513Z,3.40
2023-06-11T16:01:55.244Z,3.08
2023-06-11T16:04:24.236Z,2.88
2023-06-11T16:06:51.050Z,3.22
2023-06-11T16:09:17.841Z,3.00
2023-06-11T16:11:44.401Z,2.95
2023-06-11T16:14:11.086Z,3.35
2023-06-11T16:16:37.953Z,3.03
2023-06-11T16:19:04.630Z,3.20
2023-06-11T16:21:31.428Z,3.00
2023-06-11T16:23:58.137Z,3.05
2023-06-11T16:26:25.688Z,3.25
2023-06-11T16:28:53.596Z,3.17
2023-06-11T16:31:20.396Z,3.15
2023-06-11T16:33:57.275Z,3.17
2023-06-11T16:36:26.376Z,3.42
2023-06-11T16:38:53.541Z,3.35
2023-06-11T16:41:21.736Z,3.33
2023-06-11T16:43:50.160Z,2.83
2023-06-11T16:46:17.776Z,2.92
2023-06-11T16:48:44.818Z,3.40
2023-06-11T16:51:11.920Z,3.13
2023-06-11T16:53:39.822Z,3.30
2023-06-11T16:56:06.518Z,3.53
2023-06-11T16:58:33.192Z,3.15
2023-06-11T17:01:01.893Z,3.47
2023-06-11T17:03:28.981Z,3.40
2023-06-11T17:05:55.959Z,3.38
2023-06-11T17:08:23.417Z,3.35
2023-06-11T17:10:50.247Z,2.88
2023-06-11T17:13:16.896Z,3.05
2023-06-11T17:15:43.560Z,3.17
2023-06-11T17:18:12.471Z,3.00
2023-06-11T17:20:45.061Z,3.30
2023-06-11T17:23:14.073Z,3.30
2023-06-11T17:25:40.759Z,3.58
2023-06-11T17:28:07.743Z,3.28
2023-06-11T17:30:34.436Z,2.90
2023-06-11T17:33:01.738Z,3.30
2023-06-11T17:35:28.410Z,3.35
2023-06-11T17:37:58.249Z,2.78
2023-06-11T17:40:28.834Z,3.35
2023-06-11T17:42:58.799Z,3.30
2023-06-11T17:45:32.012Z,3.40
2023-06-11T17:48:02.863Z,3.28
2023-06-11T17:50:30.848Z,2.95
2023-06-11T17:52:57.578Z,3.30
2023-06-11T17:55:25.159Z,3.50
2023-06-11T17:57:51.753Z,3.25
2023-06-11T18:00:18.775Z,2.85
2023-06-11T18:02:45.586Z,3.00
2023-06-11T18:05:13.729Z,2.90
2023-06-11T18:07:47.114Z,3.10
2023-06-11T18:10:15.686Z,3.20
2023-06-11T18:12:42.925Z,3.78
2023-06-11T18:15:22.795Z,3.42
2023-06-11T18:17:56.907Z,3.35
2023-06-11T18:20:23.838Z,2.65
2023-06-11T18:22:52.544Z,3.05
2023-06-11T18:25:23.391Z,3.60
2023-06-11T18:27:50.208Z,3.08
2023-06-11T18:30:20.619Z,3.03
2023-06-11T18:32:50.609Z,3.38
2023-06-11T18:35:21.425Z,3.22
2023-06-11T18:37:48.230Z,3.08
2023-06-11T18:40:15.284Z,3.03
2023-06-11T18:42:43.267Z,3.20
2023-06-11T18:45:10.566Z,3.67
2023-06-11T18:47:37.320Z,3.40
2023-06-11T18:50:05.432Z,3.97
2023-06-11T18:52:32.253Z,3.90
2023-06-11T18:54:58.886Z,3.63
2023-06-11T18:57:27.745Z,3.45
2023-06-11T19:00:02.165Z,3.80
2023-06-11T19:02:28.895Z,3.22
2023-06-11T19:04:55.697Z,3.67
2023-06-11T19:07:22.456Z,3.63
2023-06-11T19:09:49.790Z,3.83
2023-06-11T19:12:16.509Z,3.83
2023-06-11T19:14:43.630Z,4.18
2023-06-11T19:17:11.387Z,3.90
2023-06-11T19:19:38.572Z,4.30
2023-06-11T19:22:05.504Z,4.10
2023-06-11T19:24:32.192Z,4.25
2023-06-11T19:26:58.852Z,3.92
2023-06-11T19:29:25.753Z,3.78
2023-06-11T19:31:52.581Z,3.95
2023-06-11T19:34:20.120Z,3.88
2023-06-11T19:36:46.907Z,3.80
2023-06-11T19:39:13.618Z,3.78
2023-06-11T19:41:40.559Z,3.88
2023-06-11T19:44:07.686Z,3.90
2023-06-11T19:46:36.469Z,3.90
2023-06-11T19:49:03.783Z,3.78
2023-06-11T19:51:30.927Z,3.72
2023-06-11T19:54:01.143Z,4.00
2023-06-11T19:56:28.954Z,3.85
2023-06-11T19:58:57.559Z,3.67
2023-06-11T20:01:26.412Z,3.97
2023-06-11T20:03:53.101Z,4.20
2023-06-11T20:06:21.200Z,4.00
2023-06-11T20:08:47.901Z,4.55
2023-06-11T20:11:17.911Z,4.10
2023-06-11T20:13:45.829Z,3.78
2023-06-11T20:16:13.237Z,4.68
2023-06-11T20:18:43.527Z,4.03
2023-06-11T20:21:10.337Z,3.85
2023-06-11T20:23:37.002Z,3.97
2023-06-11T20:26:04.817Z,4.32
2023-06-11T20:28:31.495Z,4.20
2023-06-11T20:31:04.311Z,4.25
2023-06-11T20:33:36.759Z,4.32
2023-06-11T20:36:03.480Z,4.07
2023-06-11T20:38:31.130Z,4.13
2023-06-11T20:40:58.901Z,4.93
2023-06-11T20:43:25.826Z,4.93
2023-06-11T20:48:22.319Z,5.25
2023-06-11T20:50:50.358Z,4.55
2023-06-11T20:55:50.842Z,4.35
2023-06-11T20:58:18.069Z,4.55
2023-06-11T21:00:44.740Z,4.28
2023-06-11T21:03:11.598Z,4.30
2023-06-11T21:05:39.729Z,4.30
2023-06-11T21:08:10.972Z,4.22
2023-06-11T21:10:37.592Z,4.38
2023-06-11T21:13:04.496Z,4.55
2023-06-11T21:15:31.166Z,4.55
2023-06-11T21:17:59.590Z,4.70
2023-06-11T21:20:27.018Z,5.32
2023-06-11T21:22:54.685Z,4.93
2023-06-11T21:25:21.579Z,4.85
2023-06-11T21:27:48.257Z,4.97
2023-06-11T21:30:15.122Z,5.38
2023-06-11T21:32:41.961Z,4.90
2023-06-11T21:35:09.129Z,5.10
2023-06-11T21:37:35.752Z,5.03
2023-06-11T21:40:02.384Z,5.07
2023-06-11T21:42:29.029Z,5.35
2023-06-11T21:44:55.832Z,4.80
2023-06-11T21:47:22.624Z,5.18
2023-06-11T21:49:49.740Z,5.10
2023-06-11T21:52:22.242Z,5.00
2023-06-11T21:54:49.207Z,4.50
2023-06-11T21:57:16.403Z,4.85
2023-06-11T21:59:43.864Z,5.10
2023-06-11T22:02:12.100Z,5.00
2023-06-11T22:04:38.760Z,5.70
2023-06-11T22:07:06.469Z,5.00
2023-06-11T22:09:35.127Z,5.15
2023-06-11T22:12:02.125Z,5.05
2023-06-11T22:14:30.361Z,5.10
2023-06-11T22:16:58.781Z,4.65
2023-06-11T22:19:25.906Z,4.72
2023-06-11T22:21:53.071Z,4.90
2023-06-11T22:24:19.734Z,5.47
2023-06-11T22:26:47.830Z,5.32
2023-06-11T22:29:14.677Z,6.57
2023-06-11T22:31:41.474Z,5.05
2023-06-11T22:34:08.358Z,5.30
2023-06-11T22:36:35.134Z,5.20
2023-06-11T22:39:01.838Z,5.35
2023-06-11T22:41:28.673Z,4.68
2023-06-11T22:43:55.389Z,5.13
2023-06-11T22:46:22.078Z,5.65
2023-06-11T22:48:51.998Z,5.90
2023-06-11T22:51:18.743Z,5.28
2023-06-11T22:53:45.614Z,5.30
2023-06-11T22:56:14.055Z,4.78
2023-06-11T22:58:40.708Z,5.70
2023-06-11T23:01:07.330Z,4.95
2023-06-11T23:03:34.325Z,5.50
2023-06-11T23:06:01.125Z,5.20
2023-06-11T23:08:27.999Z,5.45
2023-06-11T23:10:54.622Z,5.55
2023-06-11T23:13:21.296Z,5.30
2023-06-11T23:15:47.971Z,5.25
2023-06-11T23:18:18.040Z,4.47
2023-06-11T23:20:47.497Z,5.30
2023-06-11T23:23:16.712Z,5.18
2023-06-11T23:25:45.524Z,5.00
2023-06-11T23:28:13.412Z,5.10
2023-06-11T23:30:40.204Z,5.22
2023-06-11T23:33:07.780Z,5.53
2023-06-11T23:35:35.083Z,5.40
2023-06-11T23:38:02.494Z,4.93
2023-06-11T23:40:29.070Z,5.82
2023-06-11T23:42:55.762Z,4.90
2023-06-11T23:45:22.404Z,5.32
2023-06-11T23:47:49.258Z,5.53
2023-06-11T23:50:16.479Z,5.63
2023-06-11T23:52:43.279Z,5.65
2023-06-11T23:55:09.971Z,4.90
2023-06-11T23:57:37.942Z,5.07
